Time;durP1;ratioP1;P1;durP2;ratioP2;P2;SDS_P1;SDS_P2;PMS_P1;PMS_P2;Temp;Humidity;BMP_temperature;BMP_pressure;BME280_temperature;BME280_humidity;BME280_pressure;Samples;Min_cycle;Max_cycle;Signal;HPM_P1;HPM_P2
2021/03/28 00:00:53;;;;;;;10.30;1.77;;;4.80;99.90;;;;;;6154688;23;20160;-80
2021/03/28 00:03:30;;;;;;;13.17;1.60;;;4.80;99.90;;;;;;6154786;23;20168;-81
2021/03/28 00:06:13;;;;;;;15.77;2.00;;;4.70;99.90;;;;;;6154999;23;20150;-80
2021/03/28 00:08:42;;;;;;;7.30;1.30;;;4.70;99.90;;;;;;6155144;23;20253;-81
2021/03/28 00:11:22;;;;;;;12.17;2.00;;;4.70;99.90;;;;;;6130479;23;20181;-81
2021/03/28 00:13:53;;;;;;;10.03;2.43;;;4.70;99.90;;;;;;6155382;23;20144;-80
2021/03/28 00:16:22;;;;;;;8.60;2.00;;;4.70;99.90;;;;;;6154674;23;20192;-80
2021/03/28 00:19:09;;;;;;;12.47;2.03;;;4.70;99.90;;;;;;6154447;23;20145;-80
2021/03/28 00:21:47;;;;;;;9.90;1.53;;;4.80;99.90;;;;;;6154846;23;20175;-81
2021/03/28 00:24:17;;;;;;;10.07;1.87;;;4.70;99.90;;;;;;6154818;23;20147;-82
2021/03/28 00:27:00;;;;;;;11.30;1.90;;;4.70;99.90;;;;;;6155607;23;20176;-82
2021/03/28 00:29:27;;;;;;;8.63;1.47;;;4.70;99.90;;;;;;6155246;23;20145;-82
2021/03/28 00:32:04;;;;;;;7.63;1.50;;;4.70;99.90;;;;;;6155266;23;20176;-80
2021/03/28 00:34:33;;;;;;;11.83;1.50;;;4.70;99.90;;;;;;6155047;23;20173;-80
2021/03/28 00:37:08;;;;;;;13.33;1.80;;;4.70;99.90;;;;;;6156030;23;20151;-80
2021/03/28 00:40:00;;;;;;;10.97;1.67;;;4.70;99.90;;;;;;6155913;23;20144;-81
2021/03/28 00:42:51;;;;;;;17.33;2.20;;;4.60;99.90;;;;;;6142564;23;20234;-80
2021/03/28 00:45:28;;;;;;;10.63;1.80;;;4.70;99.90;;;;;;6130171;23;20228;-82
2021/03/28 00:48:03;;;;;;;9.70;1.90;;;4.60;99.90;;;;;;6154524;23;20588;-80
2021/03/28 00:50:46;;;;;;;10.57;1.90;;;4.70;99.90;;;;;;6153891;23;20207;-81
2021/03/28 00:53:27;;;;;;;11.77;2.07;;;4.70;99.90;;;;;;6154880;23;20147;-81
2021/03/28 00:56:00;;;;;;;14.80;2.20;;;4.70;99.90;;;;;;6155385;23;20172;-80
2021/03/28 00:58:41;;;;;;;9.83;1.80;;;4.70;99.90;;;;;;6154622;23;20145;-80
2021/03/28 01:01:13;;;;;;;8.77;1.73;;;4.70;99.90;;;;;;6154952;23;20259;-81
2021/03/28 01:04:19;;;;;;;16.30;2.20;;;4.70;99.90;;;;;;6155013;23;20151;-80
2021/03/28 01:07:11;;;;;;;13.53;2.80;;;4.60;99.90;;;;;;6155629;23;20145;-82
2021/03/28 01:10:14;;;;;;;14.27;2.13;;;4.60;99.90;;;;;;6154705;23;20157;-81
2021/03/28 01:13:13;;;;;;;10.40;2.00;;;4.50;99.90;;;;;;6130141;23;20198;-82
2021/03/28 01:15:42;;;;;;;13.50;2.50;;;4.60;99.90;;;;;;6129566;23;20186;-80
2021/03/28 01:18:21;;;;;;;15.50;2.03;;;4.60;99.90;;;;;;6154596;23;20211;-81
2021/03/28 01:21:03;;;;;;;10.03;1.93;;;4.50;99.90;;;;;;6154674;23;20195;-82
2021/03/28 01:23:39;;;;;;;11.20;2.30;;;4.50;99.90;;;;;;6157713;23;20141;-82
2021/03/28 01:26:08;;;;;;;11.87;2.20;;;4.50;99.90;;;;;;6158639;23;20145;-82
2021/03/28 01:28:50;;;;;;;16.27;2.63;;;4.50;99.90;;;;;;6157089;23;20179;-80
2021/03/28 01:31:47;;;;;;;14.20;2.03;;;4.40;99.90;;;;;;6155700;23;20190;-81
2021/03/28 01:34:22;;;;;;;14.17;2.83;;;4.40;99.90;;;;;;6155460;23;20150;-80
2021/03/28 01:37:14;;;;;;;17.30;2.63;;;4.50;99.90;;;;;;6154934;23;20470;-81
2021/03/28 01:39:58;;;;;;;15.23;2.43;;;4.50;99.90;;;;;;6154289;23;20228;-81
2021/03/28 01:42:34;;;;;;;13.83;2.50;;;4.40;99.90;;;;;;6154431;23;20207;-81
2021/03/28 01:45:18;;;;;;;19.50;2.43;;;4.40;99.90;;;;;;6154321;23;20150;-81
2021/03/28 01:48:01;;;;;;;12.73;2.30;;;4.30;99.90;;;;;;6154617;23;20202;-81
2021/03/28 01:50:52;;;;;;;12.47;2.30;;;4.40;99.90;;;;;;6154295;23;20551;-82
2021/03/28 01:53:45;;;;;;;14.23;2.70;;;4.40;99.90;;;;;;6154515;23;20680;-81
2021/03/28 01:56:26;;;;;;;19.67;2.97;;;4.30;99.90;;;;;;6154726;23;20648;-80
2021/03/28 01:59:28;;;;;;;17.30;2.37;;;4.30;99.90;;;;;;6158574;23;20201;-81
2021/03/28 02:02:51;;;;;;;15.50;2.57;;;4.30;99.90;;;;;;6159007;23;20199;-80
2021/03/28 02:05:43;;;;;;;12.67;2.77;;;4.20;99.90;;;;;;6070640;23;20165;-81
2021/03/28 02:08:30;;;;;;;18.67;3.20;;;4.20;99.90;;;;;;6046727;23;20238;-81
2021/03/28 02:11:35;;;;;;;15.57;3.20;;;4.30;99.90;;;;;;6139266;23;20181;-81
2021/03/28 02:14:25;;;;;;;19.67;3.53;;;4.30;99.90;;;;;;6157843;23;20148;-82
2021/03/28 02:17:17;;;;;;;25.50;4.23;;;4.30;99.90;;;;;;6132905;23;20202;-82
2021/03/28 02:20:04;;;;;;;12.53;3.50;;;4.30;99.90;;;;;;6157414;23;20473;-81
2021/03/28 02:22:51;;;;;;;24.43;4.13;;;4.30;99.90;;;;;;6155942;23;20595;-80
2021/03/28 02:25:21;;;;;;;18.33;4.23;;;4.30;99.90;;;;;;6156873;23;20155;-81
2021/03/28 02:27:53;;;;;;;22.83;3.70;;;4.40;99.90;;;;;;6159198;23;20152;-80
2021/03/28 02:30:24;;;;;;;18.83;3.57;;;4.40;99.90;;;;;;6160494;23;20172;-81
2021/03/28 02:33:09;;;;;;;20.07;3.97;;;4.40;99.90;;;;;;6169835;23;20147;-81
2021/03/28 02:36:06;;;;;;;18.93;4.20;;;4.40;99.90;;;;;;6170915;23;20182;-82
2021/03/28 02:39:01;;;;;;;19.93;3.57;;;4.40;99.90;;;;;;6144292;23;20186;-82
2021/03/28 02:41:52;;;;;;;16.80;3.67;;;4.50;99.90;;;;;;6145873;23;20177;-81
2021/03/28 02:44:20;;;;;;;17.37;3.97;;;4.50;99.90;;;;;;6166265;23;20147;-82
2021/03/28 02:47:09;;;;;;;21.70;4.53;;;4.50;99.90;;;;;;6164454;23;20163;-81
2021/03/28 02:50:13;;;;;;;21.60;3.87;;;4.50;99.90;;;;;;6162962;23;20152;-81
2021/03/28 02:53:03;;;;;;;17.33;3.80;;;4.50;99.90;;;;;;6135560;23;20182;-80
2021/03/28 02:55:41;;;;;;;17.17;3.50;;;4.50;99.90;;;;;;6161707;23;20268;-82
2021/03/28 02:58:23;;;;;;;20.67;5.00;;;4.60;99.90;;;;;;6165812;23;20182;-82
2021/03/28 03:01:23;;;;;;;14.60;3.33;;;4.60;99.90;;;;;;6170983;23;20203;-81
2021/03/28 03:04:03;;;;;;;18.43;3.73;;;4.60;99.90;;;;;;6145865;23;20242;-81
2021/03/28 03:06:56;;;;;;;15.97;3.70;;;4.60;99.90;;;;;;6172490;23;20183;-82
2021/03/28 03:09:39;;;;;;;19.03;3.40;;;4.60;99.90;;;;;;6173762;23;20554;-83
2021/03/28 03:12:25;;;;;;;17.63;3.90;;;4.60;99.90;;;;;;6173440;23;20183;-82
2021/03/28 03:15:23;;;;;;;15.10;4.37;;;4.60;99.90;;;;;;6173091;23;20169;-83
2021/03/28 03:18:23;;;;;;;25.33;4.23;;;4.70;99.90;;;;;;6172500;23;20153;-82
2021/03/28 03:21:21;;;;;;;14.23;3.40;;;4.60;99.90;;;;;;6175425;23;20175;-82
2021/03/28 03:24:25;;;;;;;15.10;3.43;;;4.70;99.90;;;;;;6173748;23;20155;-81
2021/03/28 03:27:05;;;;;;;19.40;3.40;;;4.70;99.90;;;;;;6171933;23;20180;-80
2021/03/28 03:29:57;;;;;;;17.53;4.07;;;4.80;99.90;;;;;;6169354;23;20160;-81
2021/03/28 03:32:41;;;;;;;19.40;3.77;;;4.80;99.90;;;;;;6172775;23;20183;-82
2021/03/28 03:35:20;;;;;;;16.63;3.83;;;4.80;99.90;;;;;;6172305;23;20635;-82
2021/03/28 03:38:17;;;;;;;20.33;4.40;;;4.80;99.90;;;;;;6171522;23;20168;-82
2021/03/28 03:41:08;;;;;;;14.90;3.20;;;4.80;99.90;;;;;;6169640;23;20161;-81
2021/03/28 03:44:02;;;;;;;15.90;3.20;;;4.80;99.90;;;;;;6172370;23;20157;-81
2021/03/28 03:46:31;;;;;;;21.47;4.10;;;4.90;99.90;;;;;;6175347;23;20152;-81
2021/03/28 03:49:02;;;;;;;24.87;4.90;;;4.80;99.90;;;;;;6174436;23;20506;-81
2021/03/28 03:51:31;;;;;;;11.83;2.53;;;4.80;99.90;;;;;;6173962;23;20260;-82
2021/03/28 03:54:10;;;;;;;16.37;3.80;;;4.90;99.90;;;;;;6177778;23;20165;-81
2021/03/28 03:56:57;;;;;;;12.93;2.73;;;4.90;99.90;;;;;;6178463;23;20218;-81
2021/03/28 03:59:53;;;;;;;14.53;3.20;;;4.90;99.90;;;;;;6176048;23;20216;-82
2021/03/28 04:02:45;;;;;;;15.30;3.20;;;4.90;99.90;;;;;;6173913;23;20508;-81
2021/03/28 04:05:29;;;;;;;17.20;3.30;;;4.80;99.90;;;;;;6173586;23;20156;-82
2021/03/28 04:08:02;;;;;;;14.70;3.13;;;4.80;99.90;;;;;;6179725;23;20168;-82
2021/03/28 04:10:54;;;;;;;19.63;3.83;;;4.80;99.90;;;;;;6176971;23;20173;-81
2021/03/28 04:13:41;;;;;;;18.97;3.93;;;4.80;99.90;;;;;;6161895;23;20166;-83
2021/03/28 04:16:31;;;;;;;13.90;3.33;;;4.90;99.90;;;;;;6173072;23;20191;-81
2021/03/28 04:19:32;;;;;;;13.23;3.30;;;5.00;99.90;;;;;;6176877;23;20150;-82
2021/03/28 04:22:16;;;;;;;14.97;4.43;;;4.90;99.90;;;;;;6155417;23;20179;-81
2021/03/28 04:25:01;;;;;;;18.60;4.00;;;4.90;99.90;;;;;;6174555;23;20153;-81
2021/03/28 04:27:47;;;;;;;11.57;3.13;;;5.00;99.90;;;;;;6172203;23;20254;-81
2021/03/28 04:30:38;;;;;;;15.43;4.00;;;5.00;99.90;;;;;;6158375;23;20217;-80
2021/03/28 04:33:20;;;;;;;15.43;3.27;;;5.00;99.90;;;;;;6156094;23;20184;-82
2021/03/28 04:36:02;;;;;;;14.23;3.27;;;5.00;99.90;;;;;;6156019;23;20186;-80
2021/03/28 04:38:50;;;;;;;12.50;3.33;;;5.00;99.90;;;;;;6156918;23;20308;-81
2021/03/28 04:41:31;;;;;;;18.87;4.03;;;5.00;99.90;;;;;;6157078;23;20191;-81
2021/03/28 04:44:15;;;;;;;12.97;2.90;;;5.00;99.90;;;;;;6158902;23;20151;-81
2021/03/28 04:46:55;;;;;;;12.63;3.40;;;5.00;99.90;;;;;;6132392;23;20153;-82
2021/03/28 04:49:55;;;;;;;13.83;3.20;;;5.00;99.90;;;;;;6157225;23;20489;-80
2021/03/28 04:52:32;;;;;;;17.33;4.07;;;5.00;99.90;;;;;;6163599;23;20178;-81
2021/03/28 04:55:28;;;;;;;12.63;3.67;;;5.00;99.90;;;;;;6170363;23;20227;-81
2021/03/28 04:58:15;;;;;;;17.10;4.20;;;5.00;99.90;;;;;;6167661;23;20164;-81
2021/03/28 05:00:46;;;;;;;12.80;3.17;;;5.00;99.90;;;;;;6166835;23;20145;-82
2021/03/28 05:03:50;;;;;;;16.17;3.77;;;5.00;99.90;;;;;;6171965;23;20153;-82
2021/03/28 05:06:34;;;;;;;16.47;3.20;;;5.10;99.90;;;;;;6171632;23;20149;-81
2021/03/28 05:09:39;;;;;;;15.63;3.97;;;5.00;99.90;;;;;;6172228;23;20202;-81
2021/03/28 05:12:16;;;;;;;14.60;3.13;;;5.00;99.90;;;;;;6170970;23;20183;-82
2021/03/28 05:15:17;;;;;;;14.40;3.23;;;5.00;99.90;;;;;;6169835;23;20593;-80
2021/03/28 05:18:21;;;;;;;12.90;2.97;;;5.00;99.90;;;;;;6170655;23;20147;-81
2021/03/28 05:21:15;;;;;;;17.07;3.37;;;5.10;99.90;;;;;;6143652;23;20182;-82
2021/03/28 05:24:36;;;;;;;18.43;4.10;;;5.10;99.90;;;;;;6172738;23;20591;-81
2021/03/28 05:27:16;;;;;;;13.63;3.17;;;5.10;99.90;;;;;;6134438;23;20166;-82
2021/03/28 05:30:19;;;;;;;14.73;3.40;;;5.10;99.90;;;;;;6172241;23;20148;-83
2021/03/28 05:33:03;;;;;;;14.23;2.87;;;5.20;99.90;;;;;;6143320;23;20176;-82
2021/03/28 05:35:50;;;;;;;17.17;3.07;;;5.20;99.90;;;;;;6141781;23;20658;-82
2021/03/28 05:38:40;;;;;;;20.03;3.57;;;5.20;99.90;;;;;;6141623;23;20335;-81
2021/03/28 05:41:25;;;;;;;13.80;3.07;;;5.20;99.90;;;;;;6172232;23;20240;-81
2021/03/28 05:44:15;;;;;;;18.93;3.53;;;5.20;99.90;;;;;;6173373;23;20152;-81
2021/03/28 05:46:48;;;;;;;18.53;3.53;;;5.20;99.90;;;;;;6172059;23;20187;-82
2021/03/28 05:49:26;;;;;;;14.07;2.90;;;5.10;99.90;;;;;;6172440;23;20523;-81
2021/03/28 05:52:22;;;;;;;10.83;2.90;;;5.20;99.90;;;;;;6171294;23;20181;-81
2021/03/28 05:55:17;;;;;;;13.13;2.87;;;5.20;99.90;;;;;;6171965;23;20213;-82
2021/03/28 05:58:15;;;;;;;17.90;3.77;;;5.30;99.90;;;;;;6170278;23;20174;-82
2021/03/28 06:01:15;;;;;;;12.57;3.10;;;5.30;99.90;;;;;;6172345;23;20155;-80
2021/03/28 06:04:23;;;;;;;17.73;3.50;;;5.40;99.90;;;;;;6140386;23;20144;-81
2021/03/28 06:07:32;;;;;;;13.60;3.17;;;5.40;99.90;;;;;;6166452;23;20217;-81
2021/03/28 06:10:21;;;;;;;17.87;3.70;;;5.40;99.90;;;;;;6166589;23;20166;-81
2021/03/28 06:13:09;;;;;;;20.03;3.90;;;5.40;99.90;;;;;;6167000;23;20776;-81
2021/03/28 06:16:16;;;;;;;17.03;3.93;;;5.40;99.90;;;;;;6138717;23;20172;-82
2021/03/28 06:19:32;;;;;;;16.90;3.67;;;5.40;99.90;;;;;;6079217;23;20155;-82
2021/03/28 06:22:13;;;;;;;14.37;3.50;;;5.40;99.90;;;;;;6077599;23;20178;-81
2021/03/28 06:24:50;;;;;;;12.00;3.23;;;5.40;99.90;;;;;;6160464;23;20156;-82
2021/03/28 06:27:55;;;;;;;18.40;3.70;;;5.40;99.90;;;;;;6168915;23;20170;-82
2021/03/28 06:30:23;;;;;;;17.70;3.33;;;5.40;99.90;;;;;;6166432;23;20155;-80
2021/03/28 06:33:10;;;;;;;15.13;3.67;;;5.40;99.90;;;;;;6172331;23;20534;-81
2021/03/28 06:35:54;;;;;;;16.13;3.70;;;5.50;99.90;;;;;;6171804;23;20182;-83
2021/03/28 06:38:44;;;;;;;15.87;3.10;;;5.50;99.90;;;;;;6143246;23;20174;-82
2021/03/28 06:42:03;;;;;;;15.83;3.83;;;5.50;99.90;;;;;;6152943;23;20179;-82
2021/03/28 06:44:34;;;;;;;12.20;3.57;;;5.60;99.90;;;;;;6060657;23;20139;-83
2021/03/28 06:47:21;;;;;;;17.37;3.90;;;5.60;99.90;;;;;;6171999;23;20152;-83
2021/03/28 06:50:12;;;;;;;15.67;3.73;;;5.60;99.90;;;;;;6175160;23;20154;-82
2021/03/28 06:52:45;;;;;;;12.83;3.57;;;5.70;99.90;;;;;;6176547;23;20175;-82
2021/03/28 06:55:29;;;;;;;17.60;4.07;;;5.80;99.90;;;;;;6175847;23;20267;-82
2021/03/28 06:58:32;;;;;;;14.37;3.77;;;5.80;99.90;;;;;;6149231;23;20148;-83
2021/03/28 07:01:25;;;;;;;15.10;4.07;;;5.80;99.90;;;;;;6147642;23;20176;-81
2021/03/28 07:04:24;;;;;;;13.47;3.67;;;5.90;99.90;;;;;;6173197;23;20137;-82
2021/03/28 07:07:18;;;;;;;14.27;4.17;;;5.90;99.90;;;;;;6151436;23;20165;-82
2021/03/28 07:10:25;;;;;;;16.70;5.33;;;5.90;99.90;;;;;;6174128;23;20172;-81
2021/03/28 07:13:20;;;;;;;19.57;4.17;;;6.10;99.90;;;;;;6179084;23;20148;-82
2021/03/28 07:16:11;;;;;;;21.50;5.10;;;6.10;99.90;;;;;;6180292;23;20168;-81
2021/03/28 07:18:55;;;;;;;17.60;5.00;;;6.20;99.90;;;;;;6179609;23;20179;-82
2021/03/28 07:21:51;;;;;;;16.03;4.60;;;6.30;99.90;;;;;;6181213;23;20212;-82
2021/03/28 07:24:41;;;;;;;19.73;5.93;;;6.30;99.90;;;;;;6179873;23;20161;-83
2021/03/28 07:27:25;;;;;;;22.17;6.07;;;6.20;99.90;;;;;;6138920;23;20159;-81
2021/03/28 07:30:22;;;;;;;13.20;4.43;;;6.20;99.90;;;;;;6138352;23;20145;-82
2021/03/28 07:33:21;;;;;;;27.13;6.40;;;6.30;99.90;;;;;;6153263;23;20190;-84
2021/03/28 07:36:11;;;;;;;17.70;5.47;;;6.30;99.90;;;;;;6181384;23;20188;-82
2021/03/28 07:39:02;;;;;;;20.43;6.63;;;6.30;99.90;;;;;;6145993;23;20183;-83
2021/03/28 07:41:44;;;;;;;22.27;7.70;;;6.30;99.90;;;;;;6169142;23;20239;-82
2021/03/28 07:47:07;;;;;;;19.57;6.70;;;6.40;99.90;;;;;;6213013;23;20239;-81
2021/03/28 07:50:01;;;;;;;27.80;8.10;;;6.50;99.90;;;;;;6187560;23;20219;-83
2021/03/28 07:53:18;;;;;;;24.20;6.87;;;6.50;99.90;;;;;;6184854;23;20186;-82
2021/03/28 07:56:23;;;;;;;18.63;8.20;;;6.50;99.90;;;;;;6182347;23;20186;-82
2021/03/28 08:07:28;;;;;;;18.40;7.53;;;6.70;99.90;;;;;;6182873;23;20360;-82
2021/03/28 08:10:08;;;;;;;23.17;8.93;;;6.80;99.90;;;;;;6203794;23;20402;-82
2021/03/28 08:12:43;;;;;;;19.80;7.77;;;6.70;99.90;;;;;;6183777;23;20308;-83
2021/03/28 08:20:42;;;;;;;22.17;9.13;;;6.80;99.90;;;;;;6213898;23;20235;-82
2021/03/28 08:23:26;;;;;;;18.50;8.50;;;6.80;99.90;;;;;;6212415;23;20163;-80
2021/03/28 08:26:17;;;;;;;21.30;8.97;;;6.80;99.90;;;;;;6212915;23;20180;-83
2021/03/28 08:29:10;;;;;;;21.43;8.83;;;6.80;99.90;;;;;;6211451;23;20157;-82
2021/03/28 08:31:55;;;;;;;17.30;8.37;;;6.80;99.90;;;;;;6213392;23;20160;-82
2021/03/28 08:34:40;;;;;;;24.77;9.63;;;6.90;99.90;;;;;;6210568;23;20137;-83
2021/03/28 08:37:31;;;;;;;26.77;10.10;;;6.90;99.90;;;;;;6211120;23;20152;-82
2021/03/28 08:40:16;;;;;;;23.77;8.30;;;6.90;99.90;;;;;;6211306;23;20155;-82
2021/03/28 08:43:00;;;;;;;20.17;9.67;;;7.00;99.90;;;;;;6210396;23;20180;-83
2021/03/28 08:56:10;;;;;;;21.20;8.33;;;7.20;99.90;;;;;;6183713;23;20259;-82
2021/03/28 08:58:54;;;;;;;22.67;9.03;;;7.20;99.90;;;;;;6157727;23;20256;-82
2021/03/28 09:01:40;;;;;;;27.10;8.73;;;7.20;99.90;;;;;;6183423;23;20161;-82
2021/03/28 09:04:12;;;;;;;28.97;8.87;;;7.30;99.90;;;;;;6154424;23;20137;-81
2021/03/28 09:06:55;;;;;;;23.80;9.03;;;7.30;99.90;;;;;;6181586;23;20173;-80
2021/03/28 09:25:29;;;;;;;19.17;8.67;;;7.10;99.90;;;;;;6183267;23;20180;-86
2021/03/28 09:32:02;;;;;;;17.00;8.33;;;7.20;99.90;;;;;;6186222;23;20150;-86
2021/03/28 09:40:22;;;;;;;20.10;8.53;;;7.30;99.90;;;;;;6177101;23;20183;-86
2021/03/28 09:46:49;;;;;;;21.23;9.13;;;7.50;99.90;;;;;;6185952;23;20108;-86
2021/03/28 10:02:55;;;;;;;20.37;8.90;;;7.70;99.90;;;;;;6186037;23;20116;-86
2021/03/28 10:09:44;;;;;;;16.07;7.67;;;7.90;99.90;;;;;;6185909;23;20124;-87
2021/03/28 10:26:10;;;;;;;16.70;7.63;;;8.20;99.90;;;;;;6241663;23;20205;-82
2021/03/28 10:28:42;;;;;;;18.17;7.20;;;8.30;99.90;;;;;;6217652;23;20404;-81
2021/03/28 10:36:38;;;;;;;20.03;6.90;;;8.40;99.90;;;;;;6212695;23;20243;-81
2021/03/28 10:39:26;;;;;;;16.07;5.60;;;8.40;99.90;;;;;;6187230;23;20136;-81
2021/03/28 10:45:04;;;;;;;17.30;6.80;;;8.40;99.90;;;;;;6184630;23;20228;-85
2021/03/28 10:48:20;;;;;;;17.40;4.97;;;8.40;99.90;;;;;;6184572;23;20121;-83
2021/03/28 10:51:36;;;;;;;14.13;4.93;;;8.60;99.90;;;;;;6185711;23;20189;-86
2021/03/28 10:54:34;;;;;;;13.97;5.07;;;8.60;99.90;;;;;;6185499;23;20114;-85
2021/03/28 10:57:41;;;;;;;16.43;4.37;;;8.60;99.90;;;;;;6186444;23;20159;-87
2021/03/28 11:00:48;;;;;;;16.43;5.00;;;8.60;99.90;;;;;;6187727;23;20113;-86
2021/03/28 11:07:28;;;;;;;18.33;4.73;;;8.60;99.90;;;;;;6187859;23;20129;-87
2021/03/28 11:16:44;;;;;;;12.87;4.20;;;8.50;99.90;;;;;;6187075;23;20240;-82
2021/03/28 12:56:36;;;;;;;10.70;4.07;;;8.10;99.90;;;;;;6181706;23;20212;-83
2021/03/28 12:59:45;;;;;;;13.23;4.23;;;8.20;99.90;;;;;;6177299;23;20189;-83
2021/03/28 13:02:36;;;;;;;15.63;4.40;;;8.20;99.90;;;;;;6097185;23;20147;-83
2021/03/28 13:05:48;;;;;;;14.13;4.03;;;8.20;99.90;;;;;;6185550;23;20117;-82
2021/03/28 13:21:26;;;;;;;12.40;4.07;;;8.10;99.90;;;;;;6181464;23;20172;-86
2021/03/28 13:27:23;;;;;;;14.03;4.43;;;8.10;99.90;;;;;;6186217;23;20117;-85
2021/03/28 13:30:17;;;;;;;11.63;4.40;;;8.20;99.90;;;;;;6185334;23;20121;-86
2021/03/28 13:32:57;;;;;;;10.53;4.40;;;8.20;99.90;;;;;;6186153;23;20132;-85
2021/03/28 14:16:33;;;;;;;12.97;4.40;;;8.30;99.90;;;;;;6184794;23;20191;-86
2021/03/28 14:19:20;;;;;;;10.70;3.30;;;8.20;99.90;;;;;;6185547;23;20156;-86
2021/03/28 14:21:49;;;;;;;14.30;3.57;;;8.20;99.90;;;;;;6160121;23;20125;-87
2021/03/28 14:24:21;;;;;;;8.87;2.80;;;8.20;99.90;;;;;;6159324;23;20121;-86
2021/03/28 14:27:24;;;;;;;8.73;3.50;;;8.30;99.90;;;;;;6159799;23;20140;-86
2021/03/28 14:30:22;;;;;;;13.07;3.67;;;8.30;99.90;;;;;;6160188;23;20112;-86
2021/03/28 14:35:43;;;;;;;7.07;2.73;;;8.30;99.90;;;;;;6184985;23;20215;-83
2021/03/28 15:59:48;;;;;;;17.50;4.73;;;8.30;99.90;;;;;;6180355;23;20176;-87
